createdAt,value
2018-04-30T00:01:10.523Z,73.70
2018-04-30T00:03:36.940Z,73.70
2018-04-30T00:06:03.436Z,73.90
2018-04-30T00:08:29.899Z,74.10
2018-04-30T00:11:09.872Z,74.60
2018-04-30T00:13:37.035Z,74.60
2018-04-30T00:16:04.342Z,74.70
2018-04-30T00:21:32.236Z,74.80
2018-04-30T00:23:58.682Z,74.80
2018-04-30T00:26:25.842Z,75.40
2018-04-30T00:28:53.010Z,75.50
2018-04-30T00:31:21.251Z,76.60
2018-04-30T00:33:47.640Z,75.80
2018-04-30T00:36:15.562Z,75.80
2018-04-30T00:38:42.727Z,75.80
2018-04-30T00:41:34.974Z,75.80
2018-04-30T00:44:01.417Z,75.70
2018-04-30T00:46:28.559Z,76.30
2018-04-30T00:48:55.006Z,76.20
2018-04-30T00:51:21.513Z,76.60
2018-04-30T00:53:47.974Z,76.90
2018-04-30T00:56:14.393Z,77.30
2018-04-30T00:58:51.208Z,77.60
2018-04-30T01:01:18.381Z,78.40
2018-04-30T01:03:45.547Z,78.60
2018-04-30T01:06:19.989Z,79.00
2018-04-30T01:08:46.440Z,78.90
2018-04-30T01:11:13.002Z,79.10
2018-04-30T01:13:39.423Z,79.20
2018-04-30T01:16:07.916Z,79.60
2018-04-30T01:18:34.416Z,79.70
2018-04-30T01:21:01.594Z,79.60
2018-04-30T01:23:28.043Z,80.10
2018-04-30T01:25:56.248Z,80.70
2018-04-30T01:28:23.174Z,80.60
2018-04-30T01:30:49.618Z,81.00
2018-04-30T01:33:16.097Z,81.40
2018-04-30T01:35:42.518Z,81.60
2018-04-30T01:38:08.984Z,82.00
2018-04-30T01:40:35.424Z,82.20
2018-04-30T01:43:05.797Z,82.30
2018-04-30T01:45:32.236Z,82.50
2018-04-30T01:47:58.679Z,82.70
2018-04-30T01:50:25.121Z,82.90
2018-04-30T01:52:51.525Z,83.40
2018-04-30T01:55:18.011Z,84.10
2018-04-30T01:57:45.191Z,85.30
2018-04-30T02:00:11.893Z,85.30
2018-04-30T02:02:38.355Z,86.00
2018-04-30T02:05:04.812Z,86.80
2018-04-30T02:07:31.223Z,87.60
2018-04-30T02:09:57.644Z,88.30
2018-04-30T02:12:24.819Z,89.90
2018-04-30T02:14:51.400Z,89.90
2018-04-30T02:17:18.572Z,90.30
2018-04-30T02:19:45.847Z,90.60
2018-04-30T02:22:13.121Z,90.80
2018-04-30T02:24:40.281Z,90.90
2018-04-30T02:27:07.571Z,91.20
2018-04-30T02:29:34.747Z,91.30
2018-04-30T02:32:01.298Z,91.60
2018-04-30T02:34:28.485Z,91.70
2018-04-30T02:36:54.964Z,91.70
2018-04-30T02:39:21.385Z,91.80
2018-04-30T02:41:47.837Z,91.90
2018-04-30T02:44:14.992Z,92.10
2018-04-30T02:46:42.171Z,92.20
2018-04-30T02:49:09.349Z,92.40
2018-04-30T02:51:35.795Z,92.40
2018-04-30T02:54:03.056Z,93.00
2018-04-30T02:56:29.532Z,92.90
2018-04-30T02:58:56.713Z,93.20
2018-04-30T03:01:23.851Z,93.30
2018-04-30T03:03:51.035Z,93.50
2018-04-30T03:06:17.478Z,93.50
2018-04-30T03:08:43.910Z,94.00
2018-04-30T03:11:10.368Z,93.80
2018-04-30T03:13:37.807Z,93.90
2018-04-30T03:16:25.365Z,94.20
2018-04-30T03:18:51.864Z,94.10
2018-04-30T03:21:19.791Z,94.40
2018-04-30T03:23:46.274Z,94.40
2018-04-30T03:26:12.793Z,94.50
2018-04-30T03:28:39.270Z,94.60
2018-04-30T03:31:05.767Z,94.60
2018-04-30T03:33:32.223Z,94.60
2018-04-30T03:35:58.642Z,94.80
2018-04-30T03:38:25.095Z,94.90
2018-04-30T03:40:51.509Z,94.80
2018-04-30T03:43:17.979Z,95.00
2018-04-30T03:45:45.261Z,95.30
2018-04-30T03:48:12.439Z,95.30
2018-04-30T03:50:38.868Z,95.30
2018-04-30T03:53:05.254Z,95.40
2018-04-30T03:55:31.904Z,95.60
2018-04-30T03:57:59.179Z,95.60
2018-04-30T04:00:37.682Z,95.60
2018-04-30T04:03:17.256Z,95.80
2018-04-30T04:05:55.984Z,95.70
2018-04-30T04:08:23.126Z,95.80
2018-04-30T04:10:49.544Z,95.80
2018-04-30T04:13:16.064Z,95.70
2018-04-30T04:15:43.234Z,95.70
2018-04-30T04:18:10.387Z,95.70
2018-04-30T04:20:36.774Z,95.60
2018-04-30T04:23:03.266Z,95.70
2018-04-30T04:25:29.675Z,95.70
2018-04-30T04:27:56.118Z,95.80
2018-04-30T04:30:24.350Z,95.70
2018-04-30T04:32:50.781Z,95.70
2018-04-30T04:35:17.953Z,95.30
2018-04-30T04:37:45.230Z,95.20
2018-04-30T04:40:11.753Z,95.20
2018-04-30T04:42:38.146Z,95.10
2018-04-30T04:45:04.576Z,94.80
2018-04-30T04:47:31.213Z,94.70
2018-04-30T04:49:59.703Z,95.10
2018-04-30T04:52:26.227Z,95.10
2018-04-30T04:54:52.672Z,94.90
2018-04-30T04:57:31.386Z,93.30
2018-04-30T04:59:57.774Z,93.20
2018-04-30T05:02:24.189Z,91.50
2018-04-30T05:07:48.366Z,84.60
2018-04-30T05:10:14.813Z,79.30
2018-04-30T05:12:41.219Z,77.50
2018-04-30T05:15:08.506Z,69.90
2018-04-30T05:18:01.626Z,66.50
2018-04-30T05:20:28.062Z,66.50
2018-04-30T05:22:55.987Z,59.90
2018-04-30T05:25:22.427Z,59.90
2018-04-30T05:28:07.819Z,54.00
2018-04-30T05:30:35.000Z,50.20
2018-04-30T05:33:01.431Z,50.10
2018-04-30T05:35:27.859Z,47.90
2018-04-30T05:38:11.840Z,45.70
2018-04-30T05:40:38.332Z,44.20
2018-04-30T05:43:04.878Z,41.50
2018-04-30T05:45:32.153Z,40.30
2018-04-30T05:51:07.230Z,39.40
2018-04-30T05:53:33.678Z,38.90
2018-04-30T05:56:00.127Z,38.70
2018-04-30T05:58:26.680Z,39.00
2018-04-30T06:00:58.042Z,38.70
2018-04-30T06:03:25.112Z,38.90
2018-04-30T06:05:53.100Z,38.70
2018-04-30T06:08:20.292Z,37.30
2018-04-30T06:10:51.359Z,37.30
2018-04-30T06:13:17.990Z,36.30
2018-04-30T06:15:45.268Z,34.20
2018-04-30T06:18:13.324Z,33.20
2018-04-30T06:20:39.756Z,33.20
2018-04-30T06:23:06.339Z,31.50
2018-04-30T06:25:33.539Z,29.80
2018-04-30T06:28:00.823Z,29.40
2018-04-30T06:30:27.255Z,29.50
2018-04-30T06:32:53.733Z,29.10
2018-04-30T06:35:21.081Z,28.70
2018-04-30T06:37:47.481Z,28.60
2018-04-30T06:40:13.979Z,28.20
2018-04-30T06:42:40.365Z,27.70
2018-04-30T06:45:07.678Z,27.30
2018-04-30T06:47:34.200Z,27.30
2018-04-30T06:50:00.784Z,27.20
2018-04-30T06:52:27.248Z,26.80
2018-04-30T06:54:53.692Z,26.40
2018-04-30T06:57:20.560Z,26.10
2018-04-30T06:59:48.295Z,25.90
2018-04-30T07:02:14.892Z,25.80
2018-04-30T07:04:41.374Z,26.00
2018-04-30T07:07:07.907Z,26.50
2018-04-30T07:09:34.382Z,26.10
2018-04-30T07:12:00.879Z,26.50
2018-04-30T07:14:27.791Z,26.60
2018-04-30T07:16:55.061Z,27.30
2018-04-30T07:19:22.216Z,27.80
2018-04-30T07:21:49.743Z,27.80
2018-04-30T07:24:19.735Z,28.20
2018-04-30T07:26:46.954Z,28.40
2018-04-30T07:29:13.436Z,28.40
2018-04-30T07:31:39.901Z,28.40
2018-04-30T07:34:08.845Z,28.20
2018-04-30T07:36:36.337Z,28.40
2018-04-30T07:39:03.143Z,28.40
2018-04-30T07:41:29.955Z,28.70
2018-04-30T07:44:00.887Z,29.00
2018-04-30T07:46:27.308Z,29.00
2018-04-30T07:48:53.759Z,29.80
2018-04-30T07:51:20.262Z,29.50
2018-04-30T07:53:46.738Z,29.90
2018-04-30T07:56:13.229Z,30.20
2018-04-30T07:58:39.750Z,30.80
2018-04-30T08:01:07.010Z,30.60
2018-04-30T08:03:34.301Z,31.30
2018-04-30T08:06:01.504Z,31.20
2018-04-30T08:08:28.749Z,32.00
2018-04-30T08:10:56.498Z,33.70
2018-04-30T08:13:22.951Z,33.60
2018-04-30T08:15:49.448Z,35.60
2018-04-30T08:18:16.108Z,37.90
2018-04-30T08:20:42.559Z,40.10
2018-04-30T08:23:09.114Z,41.80
2018-04-30T08:25:36.392Z,43.10
2018-04-30T08:28:02.817Z,44.00
2018-04-30T08:30:31.643Z,44.40
2018-04-30T08:32:58.937Z,44.60
2018-04-30T08:35:26.745Z,45.40
2018-04-30T08:37:53.283Z,45.50
2018-04-30T08:40:19.717Z,46.50
2018-04-30T08:42:46.610Z,47.40
2018-04-30T08:45:13.163Z,46.80
2018-04-30T08:47:40.432Z,46.70
2018-04-30T08:50:08.530Z,45.60
2018-04-30T08:52:36.011Z,45.60
2018-04-30T08:55:02.537Z,45.50
2018-04-30T08:57:30.044Z,46.00
2018-04-30T08:59:56.602Z,46.00
2018-04-30T09:02:24.436Z,46.30
2018-04-30T09:04:51.054Z,46.30
2018-04-30T09:07:17.576Z,47.00
2018-04-30T09:09:44.065Z,45.60
2018-04-30T09:12:11.342Z,44.80
2018-04-30T09:14:38.921Z,44.30
2018-04-30T09:17:06.452Z,44.30
2018-04-30T09:19:33.674Z,44.20
2018-04-30T09:22:01.973Z,44.40
2018-04-30T09:24:28.426Z,44.40
2018-04-30T09:26:55.601Z,44.10
2018-04-30T09:29:22.070Z,44.00
2018-04-30T09:31:48.562Z,43.40
2018-04-30T09:34:15.124Z,43.20
2018-04-30T09:36:42.361Z,42.50
2018-04-30T09:39:09.416Z,42.50
2018-04-30T09:41:36.282Z,42.10
2018-04-30T09:44:03.513Z,41.10
2018-04-30T09:46:30.127Z,41.00
2018-04-30T09:48:56.774Z,41.50
2018-04-30T09:51:23.225Z,42.00
2018-04-30T09:53:51.266Z,42.20
2018-04-30T09:56:17.746Z,42.20
2018-04-30T09:58:45.570Z,41.90
2018-04-30T10:01:12.054Z,41.90
2018-04-30T10:03:38.529Z,42.10
2018-04-30T10:06:05.002Z,43.10
2018-04-30T10:08:31.597Z,42.40
2018-04-30T10:10:58.362Z,41.70
2018-04-30T10:13:25.546Z,41.50
2018-04-30T10:15:52.094Z,41.50
2018-04-30T10:18:18.545Z,42.10
2018-04-30T10:20:45.745Z,40.20
2018-04-30T10:23:12.936Z,40.10
2018-04-30T10:25:39.343Z,40.00
2018-04-30T10:28:06.499Z,40.40
2018-04-30T10:30:33.079Z,40.40
2018-04-30T10:32:59.503Z,41.00
2018-04-30T10:35:26.048Z,40.70
2018-04-30T10:37:54.056Z,40.30
2018-04-30T10:40:20.410Z,40.30
2018-04-30T10:42:46.847Z,40.80
2018-04-30T10:45:13.258Z,41.10
2018-04-30T10:47:39.728Z,41.70
2018-04-30T10:50:06.238Z,40.90
2018-04-30T10:52:33.416Z,40.70
2018-04-30T10:54:59.994Z,40.70
2018-04-30T10:57:26.981Z,39.80
2018-04-30T10:59:53.485Z,39.90
2018-04-30T11:02:20.901Z,39.40
2018-04-30T11:04:47.455Z,38.10
2018-04-30T11:07:14.734Z,38.20
2018-04-30T11:09:42.210Z,38.20
2018-04-30T11:12:08.767Z,38.10
2018-04-30T11:14:36.343Z,38.20
2018-04-30T11:17:03.383Z,38.20
2018-04-30T11:19:29.979Z,38.20
2018-04-30T11:21:56.487Z,38.40
2018-04-30T11:24:23.299Z,36.30
2018-04-30T11:26:49.741Z,37.00
2018-04-30T11:29:16.951Z,37.90
2018-04-30T11:31:43.405Z,37.80
2018-04-30T11:34:09.878Z,37.20
2018-04-30T11:36:36.337Z,37.30
2018-04-30T11:39:03.571Z,36.70
2018-04-30T11:52:36.974Z,37.20
2018-04-30T11:55:03.453Z,37.10
2018-04-30T11:57:30.075Z,37.10
2018-04-30T11:59:56.542Z,36.10
2018-04-30T12:02:23.008Z,36.90
2018-04-30T12:04:49.546Z,36.80
2018-04-30T12:07:16.043Z,36.70
2018-04-30T12:09:42.596Z,37.10
2018-04-30T12:12:09.662Z,37.10
2018-04-30T12:14:36.118Z,38.00
2018-04-30T12:17:02.644Z,38.50
2018-04-30T12:19:29.306Z,38.60
2018-04-30T12:21:55.843Z,38.80
2018-04-30T12:24:22.526Z,39.40
2018-04-30T12:26:49.088Z,38.90
2018-04-30T12:29:15.573Z,38.90
2018-04-30T12:31:42.063Z,37.90
2018-04-30T12:34:08.657Z,38.20
2018-04-30T12:36:35.109Z,39.10
2018-04-30T12:39:01.599Z,39.10
2018-04-30T12:41:28.081Z,37.80
2018-04-30T12:43:55.291Z,35.50
2018-04-30T12:46:21.959Z,35.50
2018-04-30T12:48:49.239Z,34.60
2018-04-30T12:51:16.408Z,34.60
2018-04-30T12:53:43.171Z,35.50
2018-04-30T12:56:09.663Z,36.00
2018-04-30T12:58:36.078Z,37.30
2018-04-30T13:01:02.546Z,37.70
2018-04-30T13:03:29.000Z,37.70
2018-04-30T13:05:55.480Z,37.50
2018-04-30T13:08:21.931Z,36.80
2018-04-30T13:10:48.425Z,36.80
2018-04-30T13:13:14.924Z,37.60
2018-04-30T13:15:41.499Z,37.50
2018-04-30T13:18:07.962Z,38.20
2018-04-30T13:20:34.452Z,37.10
2018-04-30T13:23:00.927Z,36.30
2018-04-30T13:25:27.519Z,36.70
2018-04-30T13:27:54.018Z,37.10
2018-04-30T13:30:20.412Z,36.70
2018-04-30T13:32:47.610Z,37.20
2018-04-30T13:35:14.065Z,37.20
2018-04-30T13:50:11.709Z,36.20
2018-04-30T13:52:38.167Z,37.60
2018-04-30T13:55:05.531Z,38.20
2018-04-30T13:57:32.683Z,40.20
2018-04-30T13:59:59.126Z,40.20
2018-04-30T14:02:25.552Z,39.00
2018-04-30T14:04:51.990Z,38.10
2018-04-30T14:07:18.551Z,37.90
2018-04-30T14:09:44.953Z,37.20
2018-04-30T14:12:11.369Z,37.80
2018-04-30T14:14:37.796Z,37.50
2018-04-30T14:17:04.987Z,37.50
2018-04-30T14:19:31.410Z,37.50
2018-04-30T14:21:58.604Z,36.80
2018-04-30T14:24:25.883Z,36.20
2018-04-30T14:26:53.108Z,36.10
2018-04-30T14:29:19.617Z,36.10
2018-04-30T14:31:46.052Z,36.50
2018-04-30T14:34:12.551Z,36.40
2018-04-30T14:36:39.013Z,36.50
2018-04-30T14:39:05.491Z,36.30
2018-04-30T14:41:31.999Z,36.70
2018-04-30T14:43:58.470Z,35.80
2018-04-30T14:46:25.105Z,36.00
2018-04-30T14:48:52.324Z,35.60
2018-04-30T14:51:18.863Z,35.50
2018-04-30T14:53:45.307Z,36.00
2018-04-30T14:56:11.764Z,36.20
2018-04-30T14:58:39.136Z,36.50
2018-04-30T15:01:05.699Z,36.50
2018-04-30T15:03:32.168Z,37.30
2018-04-30T15:05:58.637Z,36.80
2018-04-30T15:08:25.890Z,36.80
2018-04-30T15:10:52.316Z,36.70
2018-04-30T15:13:18.974Z,36.90
2018-04-30T15:15:45.387Z,36.80
2018-04-30T15:18:11.854Z,36.90
2018-04-30T15:20:38.362Z,37.20
2018-04-30T15:23:05.600Z,37.20
2018-04-30T15:25:32.917Z,37.30
2018-04-30T15:28:00.202Z,37.30
2018-04-30T15:30:27.466Z,37.90
2018-04-30T15:32:54.653Z,37.20
2018-04-30T15:35:21.121Z,37.20
2018-04-30T15:37:47.595Z,37.20
2018-04-30T15:40:14.022Z,37.20
2018-04-30T15:42:40.563Z,37.30
2018-04-30T15:45:07.006Z,37.40
2018-04-30T15:47:33.481Z,37.60
2018-04-30T15:50:00.041Z,38.10
2018-04-30T15:52:28.605Z,37.00
2018-04-30T15:54:55.051Z,37.50
2018-04-30T15:57:21.558Z,38.10
2018-04-30T16:00:01.776Z,37.90
2018-04-30T16:02:28.228Z,37.00
2018-04-30T16:04:54.629Z,37.30
2018-04-30T16:07:22.006Z,37.80
2018-04-30T16:09:52.264Z,37.70
2018-04-30T16:12:18.700Z,37.90
2018-04-30T16:14:45.876Z,38.60
2018-04-30T16:17:13.026Z,38.60
2018-04-30T16:19:50.661Z,37.70
2018-04-30T16:22:17.156Z,37.60
2018-04-30T16:24:43.573Z,38.50
2018-04-30T16:27:09.991Z,38.40
2018-04-30T16:32:48.502Z,38.50
2018-04-30T16:35:15.457Z,38.80
2018-04-30T16:37:41.854Z,39.10
2018-04-30T16:40:09.247Z,39.10
2018-04-30T16:42:36.580Z,39.20
2018-04-30T16:45:04.491Z,39.50
2018-04-30T16:47:30.891Z,39.50
2018-04-30T16:49:57.305Z,40.10
2018-04-30T16:52:24.475Z,40.30
2018-04-30T16:54:50.891Z,40.30
2018-04-30T16:57:17.394Z,39.90
2018-04-30T16:59:44.647Z,41.20
2018-04-30T17:02:11.952Z,42.10
2018-04-30T17:04:39.145Z,42.60
2018-04-30T17:07:05.556Z,43.10
2018-04-30T17:09:32.856Z,42.50
2018-04-30T17:12:00.046Z,43.30
2018-04-30T17:14:26.589Z,43.80
2018-04-30T17:16:53.792Z,43.50
2018-04-30T17:19:20.198Z,43.50
2018-04-30T17:21:46.665Z,43.70
2018-04-30T17:24:13.833Z,43.60
2018-04-30T17:26:40.992Z,43.20
2018-04-30T17:29:07.442Z,43.20
2018-04-30T17:31:33.929Z,42.70
2018-04-30T17:34:01.093Z,44.00
2018-04-30T17:36:27.598Z,43.90
2018-04-30T17:38:54.021Z,44.20
2018-04-30T17:41:20.463Z,44.30
2018-04-30T17:43:47.029Z,44.60
2018-04-30T17:46:14.216Z,44.90
2018-04-30T17:48:40.644Z,44.90
2018-04-30T17:51:07.835Z,45.30
2018-04-30T17:53:34.386Z,45.30
2018-04-30T17:56:01.663Z,46.10
2018-04-30T17:58:28.852Z,46.30
2018-04-30T18:00:55.272Z,46.20
2018-04-30T18:03:21.711Z,46.50
2018-04-30T18:05:48.306Z,47.30
2018-04-30T18:08:15.470Z,48.90
2018-04-30T18:10:42.038Z,48.90
2018-04-30T18:13:10.272Z,50.40
2018-04-30T18:15:36.694Z,50.30
2018-04-30T18:18:03.163Z,50.60
2018-04-30T18:20:29.610Z,50.60
2018-04-30T18:22:56.058Z,51.10
2018-04-30T18:25:23.331Z,51.70
2018-04-30T18:27:50.505Z,52.20
2018-04-30T18:30:17.740Z,52.50
2018-04-30T18:32:44.777Z,52.50
2018-04-30T18:35:11.318Z,53.20
2018-04-30T18:37:37.862Z,53.60
2018-04-30T18:40:05.081Z,54.60
2018-04-30T18:42:32.177Z,54.40
2018-04-30T18:44:58.702Z,54.90
2018-04-30T18:47:25.161Z,55.40
2018-04-30T18:49:52.217Z,56.00
2018-04-30T18:52:18.669Z,56.30
2018-04-30T18:54:45.123Z,56.50
2018-04-30T18:57:11.564Z,56.60
2018-04-30T18:59:38.027Z,56.80
2018-04-30T19:02:05.192Z,57.00
2018-04-30T19:04:31.609Z,57.20
2018-04-30T19:06:58.764Z,57.40
2018-04-30T19:09:25.275Z,57.40
2018-04-30T19:11:51.834Z,56.80
2018-04-30T19:14:18.390Z,57.40
2018-04-30T19:16:44.830Z,57.60
2018-04-30T19:19:12.121Z,58.10
2018-04-30T19:21:39.290Z,58.30
2018-04-30T19:24:05.744Z,58.30
2018-04-30T19:26:32.248Z,58.70
2018-04-30T19:28:58.732Z,58.60
2018-04-30T19:31:25.184Z,59.00
2018-04-30T19:33:51.702Z,59.70
2018-04-30T19:36:18.205Z,60.40
2018-04-30T19:38:44.654Z,60.60
2018-04-30T19:41:11.160Z,60.60
2018-04-30T19:43:37.709Z,60.50
2018-04-30T19:46:04.275Z,60.90
2018-04-30T19:48:30.750Z,60.90
2018-04-30T19:50:57.208Z,61.40
2018-04-30T19:53:23.736Z,61.40
2018-04-30T19:55:51.013Z,62.50
2018-04-30T19:58:18.738Z,62.70
2018-04-30T20:00:45.240Z,62.70
2018-04-30T20:03:12.424Z,62.90
2018-04-30T20:05:39.669Z,62.60
2018-04-30T20:08:06.882Z,63.00
2018-04-30T20:10:33.431Z,63.00
2018-04-30T20:13:00.602Z,64.10
2018-04-30T20:15:27.883Z,64.60
2018-04-30T20:17:54.358Z,64.60
2018-04-30T20:20:20.845Z,64.80
2018-04-30T20:22:47.351Z,65.50
2018-04-30T20:25:13.820Z,65.50
2018-04-30T20:27:40.339Z,65.70
2018-04-30T20:30:06.796Z,66.60
2018-04-30T20:32:33.207Z,66.90
2018-04-30T20:34:59.649Z,66.90
2018-04-30T20:37:26.098Z,67.00
2018-04-30T20:39:52.575Z,67.30
2018-04-30T20:42:19.062Z,67.30
2018-04-30T20:44:45.560Z,67.80
2018-04-30T20:47:12.748Z,68.40
2018-04-30T20:49:39.205Z,68.30
2018-04-30T20:52:05.659Z,68.70
2018-04-30T20:54:32.105Z,68.90
2018-04-30T20:56:59.253Z,69.90
2018-04-30T20:59:25.683Z,69.80
2018-04-30T21:01:52.095Z,69.90
2018-04-30T21:04:18.579Z,70.00
2018-04-30T21:06:45.178Z,69.70
2018-04-30T21:09:12.885Z,69.90
2018-04-30T21:11:39.442Z,70.10
2018-04-30T21:14:06.658Z,71.30
2018-04-30T21:16:33.182Z,71.30
2018-04-30T21:18:59.617Z,73.50
2018-04-30T21:21:26.815Z,73.70
2018-04-30T21:23:53.269Z,73.50
2018-04-30T21:26:19.717Z,74.00
2018-04-30T21:28:46.147Z,74.60
2018-04-30T21:31:12.624Z,74.90
2018-04-30T21:33:39.044Z,75.50
2018-04-30T21:36:05.505Z,74.70
2018-04-30T21:38:32.099Z,75.00
2018-04-30T21:40:59.281Z,75.40
2018-04-30T21:43:25.706Z,75.40
2018-04-30T21:45:52.285Z,75.80
2018-04-30T21:48:19.530Z,75.80
2018-04-30T21:50:45.939Z,75.80
2018-04-30T21:53:12.472Z,76.10
2018-04-30T21:55:39.658Z,77.10
2018-04-30T21:58:06.130Z,77.10
2018-04-30T22:00:32.627Z,77.50
2018-04-30T22:02:59.074Z,77.30
2018-04-30T22:05:25.504Z,77.40
2018-04-30T22:07:51.910Z,77.10
2018-04-30T22:10:19.164Z,77.80
2018-04-30T22:12:45.618Z,77.50
2018-04-30T22:15:12.812Z,78.40
2018-04-30T22:17:39.244Z,78.20
2018-04-30T22:20:06.201Z,79.20
2018-04-30T22:22:32.676Z,80.00
2018-04-30T22:24:59.128Z,80.40
2018-04-30T22:27:25.549Z,80.20
2018-04-30T22:29:51.989Z,80.30
2018-04-30T22:32:18.409Z,80.10
2018-04-30T22:34:45.707Z,80.60
2018-04-30T22:37:13.391Z,80.90
2018-04-30T22:39:40.665Z,82.10
2018-04-30T22:42:07.824Z,81.50
2018-04-30T22:44:35.112Z,81.50
2018-04-30T22:47:02.320Z,81.90
2018-04-30T22:49:28.762Z,81.90
2018-04-30T22:51:55.161Z,81.80
2018-04-30T22:54:21.614Z,81.40
2018-04-30T22:56:49.519Z,78.70
2018-04-30T22:59:16.002Z,78.70
2018-04-30T23:01:43.157Z,78.00
2018-04-30T23:04:10.350Z,78.10
2018-04-30T23:06:36.899Z,77.90
2018-04-30T23:09:04.867Z,77.70
2018-04-30T23:11:31.331Z,77.60
2018-04-30T23:13:58.529Z,79.20
2018-04-30T23:16:24.987Z,79.20
2018-04-30T23:18:52.053Z,80.10
2018-04-30T23:21:18.497Z,80.60
2018-04-30T23:23:45.670Z,80.70
2018-04-30T23:26:12.101Z,80.70
2018-04-30T23:28:38.587Z,81.60
2018-04-30T23:31:05.069Z,80.70
2018-04-30T23:33:31.528Z,81.40
2018-04-30T23:35:57.952Z,80.30
2018-04-30T23:38:25.140Z,76.90
2018-04-30T23:40:51.546Z,76.80
2018-04-30T23:43:23.606Z,75.90
2018-04-30T23:45:50.054Z,75.80
2018-04-30T23:48:16.441Z,75.30
2018-04-30T23:50:42.854Z,75.90
2018-04-30T23:53:09.320Z,77.40
2018-04-30T23:55:35.820Z,76.80
2018-04-30T23:58:02.307Z,76.90
